Holiday, California
Current Conditions -  °F | °C
As of 3:53 AM on Thursday 27 Nov 2014 (Local Time) from KFUL Reporting Station
Clear Clear  
Wind Chill: 52°   Ceiling: Unl
Heat Index: 52°   Visibility: 10mi
Dew Point: 36°   Wind: 0mph
Humidity: 54%   Direction: NA
Pressure: 30.07"   Gusts: NA
Location:  33.8084°N, 117.923°W
Report Text: KFUL 271153Z 00000KT 10SM CLR 11/02 A3007 RMK AO2 SLP182 T01110022 10150 20111 58006
Loading
Personal Weather Stations






























Interactive Weather Map New forecast layout! Learn more

10-Day Weather Forecast

Advertisements
Track Severe Weather on mobile